地図

経路データ

SID SEASON NUMBER BASIN SUBBASIN NAME ISO_TIME NATURE LAT LON WMO_WIND WMO_PRES WMO_AGENCY TRACK_TYPE DIST2LAND LANDFALL IFLAG USA_AGENCY USA_ATCF_ID USA_LAT USA_LON USA_RECORD USA_STATUS USA_WIND USA_PRES USA_SSHS USA_R34_NE USA_R34_SE USA_R34_SW USA_R34_NW USA_R50_NE USA_R50_SE USA_R50_SW USA_R50_NW USA_R64_NE USA_R64_SE USA_R64_SW USA_R64_NW USA_POCI USA_ROCI USA_RMW USA_EYE TOKYO_LAT TOKYO_LON TOKYO_GRADE TOKYO_WIND TOKYO_PRES TOKYO_R50_DIR TOKYO_R50_LONG TOKYO_R50_SHORT TOKYO_R30_DIR TOKYO_R30_LONG TOKYO_R30_SHORT TOKYO_LAND CMA_LAT CMA_LON CMA_CAT CMA_WIND CMA_PRES HKO_LAT HKO_LON HKO_CAT HKO_WIND HKO_PRES NEWDELHI_LAT NEWDELHI_LON NEWDELHI_GRADE NEWDELHI_WIND NEWDELHI_PRES NEWDELHI_CI NEWDELHI_DP NEWDELHI_POCI REUNION_LAT REUNION_LON REUNION_TYPE REUNION_WIND REUNION_PRES REUNION_TNUM REUNION_CI REUNION_RMW REUNION_R34_NE REUNION_R34_SE REUNION_R34_SW REUNION_R34_NW REUNION_R50_NE REUNION_R50_SE REUNION_R50_SW REUNION_R50_NW REUNION_R64_NE REUNION_R64_SE REUNION_R64_SW REUNION_R64_NW BOM_LAT BOM_LON BOM_TYPE BOM_WIND BOM_PRES BOM_TNUM BOM_CI BOM_RMW BOM_R34_NE BOM_R34_SE BOM_R34_SW BOM_R34_NW BOM_R50_NE BOM_R50_SE BOM_R50_SW BOM_R50_NW BOM_R64_NE BOM_R64_SE BOM_R64_SW BOM_R64_NW BOM_ROCI BOM_POCI BOM_EYE BOM_POS_METHOD BOM_PRES_METHOD NADI_LAT NADI_LON NADI_CAT NADI_WIND NADI_PRES WELLINGTON_LAT WELLINGTON_LON WELLINGTON_WIND WELLINGTON_PRES DS824_LAT DS824_LON DS824_STAGE DS824_WIND DS824_PRES TD9636_LAT TD9636_LON TD9636_STAGE TD9636_WIND TD9636_PRES TD9635_LAT TD9635_LON TD9635_WIND TD9635_PRES TD9635_ROCI NEUMANN_LAT NEUMANN_LON NEUMANN_CLASS NEUMANN_WIND NEUMANN_PRES MLC_LAT MLC_LON MLC_CLASS MLC_WIND MLC_PRES USA_GUST BOM_GUST BOM_GUST_PER REUNION_GUST REUNION_GUST_PER USA_SEAHGT USA_SEARAD_NE USA_SEARAD_SE USA_SEARAD_SW USA_SEARAD_NW STORM_SPEED STORM_DIR
1968328S09153 1969 121 SP EA ADELE 1968-11-22 23:00:00 NR -9.20000 153.150 1008 bom main 300 286 ______O___O___ -1 -9.20000 153.100 1008 -9.20000 153.200 1 10 6 215
1968328S09153 1969 121 SP EA ADELE 1968-11-23 00:00:00 TS -9.27936 153.098 main 286 257 O_____P__OP_O_ jtwc_sh SH031969 -9.30000 153.100 10 -1 -9.28395 153.033 1008 -9.30000 153.000 TC 15 1008 -9.28347 153.111 1 10 -9.20000 153.300 TC 10 1008 7 221
1968328S09153 1969 121 SP EA ADELE 1968-11-23 03:00:00 TS -9.52787 152.865 main 257 215 P_____P__PP_P_ SH031969 -9.54252 152.855 15 -1 -9.53899 152.830 1008 -9.55315 152.792 TC 15 1008 -9.53725 152.845 1 13 -9.44256 153.038 TC 10 1008 7 222
1968328S09153 1969 121 SP EA ADELE 1968-11-23 06:00:00 TS -9.78906 152.627 main 215 187 O_____P__PP_O_ jtwc_sh SH031969 -9.80000 152.600 20 -1 -9.80569 152.613 1008 -9.81500 152.577 TC 15 1008 -9.80338 152.589 1 15 -9.70000 152.800 TC 10 1008 7 221
1968328S09153 1969 121 SP EA ADELE 1968-11-23 09:00:00 TS -10.0722 152.390 main 187 164 P_____P__PP_P_ SH031969 -10.0850 152.335 20 -1 -10.0928 152.375 1008 -10.0943 152.349 TC 15 1008 -10.0913 152.348 1 18 -9.98496 152.600 TC 10 1008 8 218
1968328S09153 1969 121 SP EA ADELE 1968-11-23 11:00:00 TS -10.2783 152.233 1008 bom main 164 164 P_____O__PO_P_ SH031969 -10.2917 152.172 20 -1 -10.3000 152.200 1008 -10.2946 152.186 TC 15 1008 -10.3000 152.200 1 20 -10.1916 152.470 TC 10 1008 8 216
1968328S09153 1969 121 SP EA ADELE 1968-11-23 12:00:00 TS -10.3866 152.156 main 164 131 O_____P__OP_O_ jtwc_sh SH031969 -10.4000 152.100 20 -1 -10.4091 152.107 1007 -10.4000 152.100 TC 15 1008 -10.4103 152.130 1 19 -10.3000 152.400 TC 10 1008 8 213
1968328S09153 1969 121 SP EA ADELE 1968-11-23 15:00:00 TS -10.7295 151.933 main 131 122 P_____P__PP_P_ SH031969 -10.7425 151.927 17 -1 -10.7540 151.815 1007 -10.7367 151.831 TC 15 1007 -10.7592 151.941 1 16 -10.6425 152.157 TC 12 1007 8 211
1968328S09153 1969 121 SP EA ADELE 1968-11-23 18:00:00 TS -11.0877 151.731 main 122 119 O_____P__PP_O_ jtwc_sh SH031969 -11.1000 151.800 15 -1 -11.1129 151.536 1006 -11.0926 151.568 TC 15 1007 -11.1207 151.784 1 14 -11.0000 151.900 TC 15 1007 8 208
1968328S09153 1969 121 SP EA ADELE 1968-11-23 21:00:00 TS -11.4452 151.549 main 125 125 P_____P__PP_P_ SH031969 -11.4575 151.685 12 -1 -11.4703 151.307 1006 -11.4523 151.346 TC 15 1006 -11.4759 151.661 1 11 -11.3575 151.613 TC 15 1006 8 205
1968328S09153 1969 121 SP EA ADELE 1968-11-23 23:00:00 TS -11.6756 151.457 1006 bom main 151 144 P_____O__PO_P_ SH031969 -11.6890 151.625 10 -1 -11.7000 151.200 1006 -11.6864 151.238 TC 15 1006 -11.7000 151.600 1 10 -11.5891 151.455 TC 15 1006 7 200
1968328S09153 1969 121 SP EA ADELE 1968-11-24 00:00:00 TS -11.7855 151.422 main 154 154 O_____P__OP_O_ jtwc_sh SH031969 -11.8000 151.600 10 -1 -11.8103 151.165 1005 -11.8000 151.200 TC 15 1006 -11.8029 151.569 1 10 -11.7000 151.400 TC 15 1006 7 191
1968328S09153 1969 121 SP EA ADELE 1968-11-24 03:00:00 TS -12.0986 151.366 main 184 184 P_____P__PP_P_ SH031969 -12.1150 151.535 10 -1 -12.1319 151.119 1004 -12.1264 151.154 TC 17 1005 -12.0957 151.500 1 10 -12.0075 151.355 TC 17 1005 6 185
1968328S09153 1969 121 SP EA ADELE 1968-11-24 06:00:00 TS -12.3906 151.367 main 215 215 O_____P__PP_O_ jtwc_sh SH031969 -12.4000 151.500 10 -1 -12.4369 151.145 1003 -12.4373 151.187 TC 20 1004 -12.3694 151.469 1 10 -12.3000 151.400 TC 20 1004 6 178
1968328S09153 1969 121 SP EA ADELE 1968-11-24 09:00:00 TS -12.6687 151.393 main 247 247 P_____P__PP_P_ SH031969 -12.6575 151.478 10 -1 -12.7223 151.226 1002 -12.7296 151.276 TC 22 1003 -12.6302 151.475 1 10 -12.6150 151.428 TC 22 1003 6 172
1968328S09153 1969 121 SP EA ADELE 1968-11-24 11:00:00 TS -12.8437 151.433 1002 bom main 257 257 P_____O__PO_P_ SH031969 -12.8193 151.486 10 -1 -12.9000 151.300 1002 -12.9125 151.356 TC 24 1002 -12.8000 151.500 1 10 -12.8114 151.469 TC 24 1002 5 169
1968328S09153 1969 121 SP EA ADELE 1968-11-24 12:00:00 TS -12.9288 151.457 main 271 271 O_____P__OP_O_ jtwc_sh SH031969 -12.9000 151.500 10 -1 -12.9851 151.331 1001 -13.0000 151.400 TC 25 1002 -12.8879 151.512 1 10 -12.9000 151.500 TC 25 1002 5 160
1968328S09153 1969 121 SP EA ADELE 1968-11-24 15:00:00 TS -13.1707 151.554 main 307 307 P_____P__PP_P_ SH031969 -13.1500 151.577 10 -1 -13.2237 151.450 1001 -13.2466 151.513 TC 26 1001 -13.1466 151.572 1 10 -13.1075 151.635 TC 25 1001 5 155
1968328S09153 1969 121 SP EA ADELE 1968-11-24 18:00:00 TS -13.4025 151.687 main 331 331 O_____P__PP_O_ jtwc_sh SH031969 -13.4000 151.700 10 -1 -13.4448 151.601 1000 -13.4725 151.655 TC 27 1001 -13.3978 151.668 1 10 -13.3000 151.800 TC 25 1001 5 150
1968328S09153 1969 121 SP EA ADELE 1968-11-24 21:00:00 TS -13.6419 151.834 main 356 356 P_____P__PP_P_ SH031969 -13.6575 151.835 10 -1 -13.6579 151.776 1000 -13.6872 151.819 TC 28 1000 -13.6416 151.797 1 10 -13.5500 151.943 TC 27 1000 6 148
1968328S09153 1969 121 SP EA ADELE 1968-11-24 23:00:00 TS -13.7989 151.944 1000 bom main 381 381 P_____O__PO_P_ SH031969 -13.8224 151.942 10 -1 -13.8000 151.900 1000 -13.8287 151.938 TC 29 1000 -13.8000 151.900 1 10 -13.7197 152.044 TC 29 1000 6 145
1968328S09153 1969 121 SP EA ADELE 1968-11-25 00:00:00 TS -13.8762 152.002 main 395 395 O_____P__OP_O_ jtwc_sh SH031969 -13.9000 152.000 10 -1 -13.8762 151.960 1000 -13.9000 152.000 TC 30 1000 -13.8808 151.953 1 10 -13.8000 152.100 TC 30 1000 6 141
1968328S09153 1969 121 SP EA ADELE 1968-11-25 03:00:00 TS -14.0922 152.192 main 424 424 P_____P__PP_P_ SH031969 -14.1000 152.193 12 -1 -14.1054 152.151 1000 -14.1291 152.190 TC 30 1000 -14.1188 152.135 1 13 -14.0000 152.293 TC 30 1000 6 138
1968328S09153 1969 121 SP EA ADELE 1968-11-25 06:00:00 TS -14.3063 152.398 main 453 453 O_____P__PP_O_ jtwc_sh SH031969 -14.3000 152.400 15 -1 -14.3330 152.353 1000 -14.3575 152.393 TC 30 1000 -14.3476 152.340 1 15 -14.2000 152.500 TC 30 1000 6 139
1968328S09153 1969 121 SP EA ADELE 1968-11-25 09:00:00 TS -14.5445 152.603 main 482 482 P_____P__PP_P_ SH031969 -14.5575 152.600 17 -1 -14.5557 152.561 1000 -14.5822 152.599 TC 30 1000 -14.5641 152.556 1 18 -14.4500 152.700 TC 30 1000 6 140
1968328S09153 1969 121 SP EA ADELE 1968-11-25 11:00:00 TS -14.6998 152.739 1000 bom main 507 507 P_____O__PO_P_ SH031969 -14.7255 152.733 19 -1 -14.7000 152.700 1000 -14.7284 152.734 TC 30 1000 -14.7000 152.700 1 20 -14.6197 152.833 TC 30 1000 6 139
1968328S09153 1969 121 SP EA ADELE 1968-11-25 12:00:00 TS -14.7713 152.808 main 522 522 O_____P__OP_O_ jtwc_sh SH031969 -14.8000 152.800 20 -1 -14.7676 152.773 1000 -14.8000 152.800 TC 30 1000 -14.7601 152.773 1 20 -14.7000 152.900 TC 30 1000 6 133
1968328S09153 1969 121 SP EA ADELE 1968-11-25 15:00:00 TS -14.9521 153.017 main 552 552 P_____P__PP_P_ SH031969 -14.9575 153.008 22 -1 -14.9638 152.994 1000 -14.9991 152.999 TC 30 1000 -14.9275 152.994 1 22 -14.9075 153.100 TC 30 1000 5 132
1968328S09153 1969 121 SP EA ADELE 1968-11-25 18:00:00 TS -15.1233 153.217 main 572 572 O_____P__PP_O_ jtwc_sh SH031969 -15.1000 153.200 25 -1 -15.1574 153.207 1000 -15.1925 153.188 TC 30 1000 -15.0898 153.207 1 24 -15.1000 153.300 TC 30 1000 5 134
1968328S09153 1969 121 SP EA ADELE 1968-11-25 21:00:00 TS -15.3127 153.400 main 602 602 P_____P__PP_P_ SH031969 -15.2850 153.365 27 -1 -15.3579 153.395 1000 -15.3897 153.358 TC 30 1000 -15.2658 153.395 1 26 -15.2925 153.522 TC 30 1000 5 140
1968328S09153 1969 121 SP EA ADELE 1968-11-25 23:00:00 TS -15.4509 153.504 1000 bom main 626 626 P_____O__PO_P_ SH031969 -15.4250 153.458 29 -1 -15.5000 153.500 1000 -15.5279 153.456 TC 30 1000 -15.4000 153.500 1 28 -15.4276 153.650 TC 30 1000 5 146
1968328S09153 1969 121 SP EA ADELE 1968-11-26 00:00:00 TS -15.5256 153.547 main 626 626 O_____P__OP_O_ jtwc_sh SH031969 -15.5000 153.500 30 -1 -15.5741 153.543 1000 -15.6000 153.500 TC 30 1000 -15.4794 153.542 1 27 -15.5000 153.700 TC 30 1000 5 156
1968328S09153 1969 121 SP EA ADELE 1968-11-26 03:00:00 TS -15.7645 153.648 main 661 661 P_____P__PP_P_ SH031969 -15.7350 153.615 27 -1 -15.8066 153.645 1000 -15.8274 153.608 TC 30 1000 -15.7404 153.640 1 25 -15.7425 153.765 TC 30 1000 5 162
1968328S09153 1969 121 SP EA ADELE 1968-11-26 06:00:00 TS -16.0245 153.719 main 686 686 O_____P__PP_O_ jtwc_sh SH031969 -16.0000 153.700 25 -1 -16.0541 153.716 1000 -16.0699 153.688 TC 30 1000 -16.0231 153.708 1 23 -16.0000 153.800 TC 30 1000 6 167
1968328S09153 1969 121 SP EA ADELE 1968-11-26 09:00:00 TS -16.2997 153.780 main 691 677 P_____P__PP_P_ SH031969 -16.3000 153.750 22 -1 -16.3166 153.769 1000 -16.3275 153.749 TC 30 1000 -16.3118 153.763 1 21 -16.2425 153.900 TC 30 1000 6 168
1968328S09153 1969 121 SP EA ADELE 1968-11-26 11:00:00 TS -16.4874 153.819 1000 bom main 677 670 P_____O__PO_P_ SH031969 -16.5031 153.780 20 -1 -16.5000 153.800 1000 -16.5075 153.783 TC 30 1000 -16.5000 153.800 1 20 -16.4110 153.970 TC 30 1000 6 169
1968328S09153 1969 121 SP EA ADELE 1968-11-26 12:00:00 TS -16.5800 153.842 main 670 665 O_____P__OP_O_ jtwc_sh SH031969 -16.6000 153.800 20 -1 -16.5958 153.822 999 -16.6000 153.800 TC 30 1000 -16.5842 153.829 1 20 -16.5000 154.000 TC 30 1000 6 165
1968328S09153 1969 121 SP EA ADELE 1968-11-26 15:00:00 TS -16.8545 153.921 main 658 654 P_____P__PP_P_ SH031969 -16.8575 153.900 22 -1 -16.8951 153.885 999 -16.8937 153.865 TC 31 999 -16.8304 153.916 1 23 -16.7925 154.058 TC 30 999 6 165
1968328S09153 1969 121 SP EA ADELE 1968-11-26 18:00:00 TS -17.1295 153.993 main 654 636 O_____P__PP_O_ jtwc_sh SH031969 -17.1000 154.000 25 -1 -17.2027 153.939 998 -17.2000 153.922 TC 32 999 -17.0740 153.999 1 25 -17.1000 154.100 TC 30 999 6 167
1968328S09153 1969 121 SP EA ADELE 1968-11-26 21:00:00 TS -17.4049 154.051 main 645 633 P_____P__PP_P_ SH031969 -17.3425 154.065 27 -1 -17.5062 153.981 998 -17.5063 153.968 TC 33 998 -17.3245 154.067 1 28 -17.4075 154.157 TC 32 998 6 170
1968328S09153 1969 121 SP EA ADELE 1968-11-26 23:00:00 TS -17.5886 154.077 998 bom main 633 628 P_____O__PO_P_ SH031969 -17.5110 154.092 29 -1 -17.7000 154.000 998 4 -17.7042 153.991 TC 34 998 -17.5000 154.100 1 30 -17.6057 154.189 TC 34 998 6 170
1968328S09153 1969 121 SP EA ADELE 1968-11-27 00:00:00 TS -17.6808 154.086 main 628 615 O_____P__OP_O_ jtwc_sh SH031969 -17.6000 154.100 30 -1 -17.7900 154.007 998 -17.8000 154.000 TC 35 998 -17.5945 154.111 1 29 -17.7000 154.200 TC 35 998 6 0
1968328S09153 1969 121 SP EA ADELE 1968-11-27 03:00:00 TS -17.9583 154.097 main 606 588 P_____P__PP_P_ SH031969 -17.8925 154.108 27 -1 -18.0491 154.016 998 -18.0684 154.014 TC 33 998 -17.8896 154.129 1 26 -17.9575 154.208 TC 32 998 6 178
1968328S09153 1969 121 SP EA ADELE 1968-11-27 06:00:00 TS -18.2356 154.093 main 588 561 O_____P__PP_O_ jtwc_sh SH031969 -18.2000 154.100 25 -1 -18.2966 154.013 999 -18.3225 154.015 TC 32 999 -18.1947 154.128 1 24 -18.2000 154.200 TC 30 999 6 0
1968328S09153 1969 121 SP EA ADELE 1968-11-27 09:00:00 TS -18.5066 154.090 main 561 544 P_____P__PP_P_ SH031969 -18.4925 154.107 22 -1 -18.5386 154.005 999 -18.5653 154.008 TC 31 999 -18.5005 154.114 1 21 -18.4500 154.200 TC 30 999 5 183
1968328S09153 1969 121 SP EA ADELE 1968-11-27 11:00:00 TS -18.6880 154.086 1000 bom main 544 535 P_____O__PO_P_ SH031969 -18.6943 154.106 20 -1 -18.7000 154.000 1000 -18.7225 154.003 TC 30 999 -18.7000 154.100 1 20 -18.6167 154.200 TC 30 999 6 184
1968328S09153 1969 121 SP EA ADELE 1968-11-27 12:00:00 TS -18.7829 154.082 main 535 510 O_____P__OP_O_ jtwc_sh SH031969 -18.8000 154.100 20 -1 -18.7902 154.000 1000 -18.8000 154.000 TC 30 1000 -18.8073 154.094 1 19 -18.7000 154.200 TC 30 1000 6 0
1968328S09153 1969 121 SP EA ADELE 1968-11-27 15:00:00 TS -19.0861 154.061 main 510 479 P_____P__PP_P_ SH031969 -19.1725 154.050 17 -1 -19.0634 154.000 1001 -19.0294 153.996 TC 27 1001 -19.1289 154.069 1 18 -18.9500 154.200 TC 27 1001 6 184
1968328S09153 1969 121 SP EA ADELE 1968-11-27 18:00:00 TS -19.3684 154.039 main 479 464 O_____P__PP_O_ jtwc_sh SH031969 -19.5000 154.000 15 -1 -19.3275 154.000 1002 -19.2550 153.995 TC 25 1002 -19.4279 154.040 1 17 -19.2000 154.200 TC 25 1002 5 181
1968328S09153 1969 121 SP EA ADELE 1968-11-27 21:00:00 TS -19.6035 154.034 main 464 456 P_____P__PP_P_ SH031969 -19.6950 153.992 15 -1 -19.5650 154.000 1003 -19.4781 153.997 TC 22 1003 -19.6764 154.014 1 15 -19.4800 154.200 TC 22 1003 4 181
1968328S09153 1969 121 SP EA ADELE 1968-11-27 23:00:00 TS -19.7266 154.035 1004 bom main 456 448 P_____O__PO_P_ SH031969 -19.7719 153.997 15 -1 -19.7000 154.000 1004 -19.6261 153.999 TC 20 1003 -19.8000 154.000 1 15 -19.6395 154.200 TC 20 1003 3 0
1968328S09153 1969 121 SP EA ADELE 1968-11-28 00:00:00 TS -19.7763 154.037 main 448 441 O_____P__OP_O_ jtwc_sh SH031969 -19.8000 154.000 15 -1 -19.7587 154.000 -19.7000 154.000 TC 20 1004 -19.8419 153.997 1 15 -19.7000 154.200 TC 20 1004 2 177
1968328S09153 1969 121 SP EA ADELE 1968-11-28 03:00:00 TS -19.8691 154.038 main 441 441 P_____P___P_P_ SH031969 -19.8725 154.000 15 -1 -19.9006 154.000 TC -19.9123 153.992 1 15 -19.7875 154.200 TC 20 1004 1 0
1968328S09153 1969 121 SP EA ADELE 1968-11-28 06:00:00 TS -19.9041 154.039 main 441 441 O_____P___P_O_ jtwc_sh SH031969 -19.9000 154.000 15 -1 -19.9962 154.000 TC -19.9245 153.993 1 15 -19.8000 154.200 TC 20 1005 0 0
1968328S09153 1969 121 SP EA ADELE 1968-11-28 09:00:00 TS -19.9124 154.039 main 441 441 P_____P___P_P_ SH031969 -19.9000 154.000 15 -1 -20.0525 154.000 TC -19.9096 153.997 1 15 -19.8000 154.200 TC 17 1006 0 0
1968328S09153 1969 121 SP EA ADELE 1968-11-28 11:00:00 TS -19.9125 154.040 main 441 441 P_____P___O_P_ SH031969 -19.8969 154.000 15 -1 -20.0717 154.000 TC -19.9000 154.000 1 15 -19.7969 154.200 TC 15 1006 0 0
1968328S09153 1969 121 SP EA ADELE 1968-11-28 12:00:00 TS -19.9167 154.045 main 441 441 O_____P___P_O_ jtwc_sh SH031969 -19.9000 154.000 15 -1 -20.0766 154.000 -19.8986 154.001 1 15 -19.8000 154.200 TC 15 1007 0 136
1968328S09153 1969 121 SP EA ADELE 1968-11-28 15:00:00 TS -19.9410 154.051 main 448 441 P_____P___P_P_ SH031969 -19.9375 154.000 15 -1 -20.0752 154.000 -19.9086 154.002 1 15 -19.8425 154.200 TC 12 1007 1 0
1968328S09153 1969 121 SP EA ADELE 1968-11-28 18:00:00 TS -19.9643 154.067 main 441 441 O_____P___P_O_ jtwc_sh SH031969 -20.0000 154.000 15 -1 -20.0553 154.000 -19.9354 154.002 1 15 -19.9000 154.200 TC 10 1008 1 132
1968328S09153 1969 121 SP EA ADELE 1968-11-28 21:00:00 TS -19.9786 154.086 main 441 441 ______P___P_P_ SH031969 -1 -20.0239 154.000 -19.9725 154.001 1 15 -19.9525 154.200 TC 17 1009 1 135
1968328S09153 1969 121 SP EA ADELE 1968-11-28 23:00:00 TS -19.9922 154.100 1010 bom main 441 441 ______O___O_P_ SH031969 -1 -20.0000 154.000 1010 -20.0000 154.000 1 15 -19.9844 154.200 TC 22 1009 2 102
1968328S09153 1969 121 SP EA ADELE 1968-11-29 00:00:00 TS -20.0000 154.200 main 449 ____________O_ -1 1 -20.0000 154.200 TC 25 1010 6 95

デジタル台風データ・検索

IBTrACS Databaseについて

本データベースは、米国NOAAが公開する1842年以降の世界の熱帯低気圧のベストトラックデータアーカイブInternational Best Track Archive for Climate Stewardship (IBTrACS)を、ウェブで閲覧しやすい形式に変換したものです。

最終更新日:2021-10-27